sensor_id;sensor_type;location;lat;lon;timestamp;temperature;humidity
1948;DHT22;974;52.400;9.818;2024-02-26T00:01:29;1.30;99.90
1948;DHT22;974;52.400;9.818;2024-02-26T00:03:56;1.50;99.90
1948;DHT22;974;52.400;9.818;2024-02-26T00:06:24;1.30;99.90
1948;DHT22;974;52.400;9.818;2024-02-26T00:08:50;1.30;99.90
1948;DHT22;974;52.400;9.818;2024-02-26T00:11:15;1.20;99.90
1948;DHT22;974;52.400;9.818;2024-02-26T00:13:41;1.30;99.90
1948;DHT22;974;52.400;9.818;2024-02-26T00:16:06;1.20;99.90
1948;DHT22;974;52.400;9.818;2024-02-26T00:18:33;1.20;99.90
1948;DHT22;974;52.400;9.818;2024-02-26T00:20:58;1.20;99.90
1948;DHT22;974;52.400;9.818;2024-02-26T00:23:24;1.20;99.90
1948;DHT22;974;52.400;9.818;2024-02-26T00:25:49;1.20;99.90
1948;DHT22;974;52.400;9.818;2024-02-26T00:28:15;1.10;99.90
1948;DHT22;974;52.400;9.818;2024-02-26T00:30:40;1.10;99.90
1948;DHT22;974;52.400;9.818;2024-02-26T00:33:06;1.00;99.90
1948;DHT22;974;52.400;9.818;2024-02-26T00:35:31;1.10;99.90
1948;DHT22;974;52.400;9.818;2024-02-26T00:37:57;1.10;99.90
1948;DHT22;974;52.400;9.818;2024-02-26T00:40:24;1.10;99.90
1948;DHT22;974;52.400;9.818;2024-02-26T00:42:49;0.90;99.90
1948;DHT22;974;52.400;9.818;2024-02-26T00:45:15;1.00;99.90
1948;DHT22;974;52.400;9.818;2024-02-26T00:47:41;0.90;99.90
1948;DHT22;974;52.400;9.818;2024-02-26T00:50:07;0.90;99.90
1948;DHT22;974;52.400;9.818;2024-02-26T00:52:34;0.90;99.90
1948;DHT22;974;52.400;9.818;2024-02-26T00:54:59;0.80;99.90
1948;DHT22;974;52.400;9.818;2024-02-26T00:57:25;1.00;99.90
1948;DHT22;974;52.400;9.818;2024-02-26T00:59:50;1.00;99.90
1948;DHT22;974;52.400;9.818;2024-02-26T01:02:16;1.00;99.90
1948;DHT22;974;52.400;9.818;2024-02-26T01:04:41;0.90;99.90
1948;DHT22;974;52.400;9.818;2024-02-26T01:07:07;0.90;99.90
1948;DHT22;974;52.400;9.818;2024-02-26T01:09:32;1.10;99.90
1948;DHT22;974;52.400;9.818;2024-02-26T01:11:58;1.00;99.90
1948;DHT22;974;52.400;9.818;2024-02-26T01:14:24;0.90;99.90
1948;DHT22;974;52.400;9.818;2024-02-26T01:16:49;1.00;99.90
1948;DHT22;974;52.400;9.818;2024-02-26T01:19:15;0.90;99.90
1948;DHT22;974;52.400;9.818;2024-02-26T01:21:41;1.00;99.90
1948;DHT22;974;52.400;9.818;2024-02-26T01:24:06;1.00;99.90
1948;DHT22;974;52.400;9.818;2024-02-26T01:26:32;1.00;99.90
1948;DHT22;974;52.400;9.818;2024-02-26T01:28:58;1.10;99.90
1948;DHT22;974;52.400;9.818;2024-02-26T01:31:23;1.10;99.90
1948;DHT22;974;52.400;9.818;2024-02-26T01:33:49;1.10;99.90
1948;DHT22;974;52.400;9.818;2024-02-26T01:36:14;1.20;99.90
1948;DHT22;974;52.400;9.818;2024-02-26T01:38:40;1.20;99.90
1948;DHT22;974;52.400;9.818;2024-02-26T01:41:05;1.30;99.90
1948;DHT22;974;52.400;9.818;2024-02-26T01:43:31;1.30;99.90
1948;DHT22;974;52.400;9.818;2024-02-26T01:45:57;1.40;99.90
1948;DHT22;974;52.400;9.818;2024-02-26T01:48:23;1.40;99.90
1948;DHT22;974;52.400;9.818;2024-02-26T01:50:49;1.40;99.90
1948;DHT22;974;52.400;9.818;2024-02-26T01:53:16;1.50;99.90
1948;DHT22;974;52.400;9.818;2024-02-26T01:55:42;1.50;99.90
1948;DHT22;974;52.400;9.818;2024-02-26T01:58:07;1.50;99.90
1948;DHT22;974;52.400;9.818;2024-02-26T02:00:34;1.50;99.90
1948;DHT22;974;52.400;9.818;2024-02-26T02:03:01;1.50;99.90
1948;DHT22;974;52.400;9.818;2024-02-26T02:05:28;1.50;99.90
1948;DHT22;974;52.400;9.818;2024-02-26T02:07:54;1.50;99.90
1948;DHT22;974;52.400;9.818;2024-02-26T02:10:20;1.50;99.90
1948;DHT22;974;52.400;9.818;2024-02-26T02:12:48;1.50;99.90
1948;DHT22;974;52.400;9.818;2024-02-26T02:15:14;1.60;99.90
1948;DHT22;974;52.400;9.818;2024-02-26T02:17:39;1.60;99.90
1948;DHT22;974;52.400;9.818;2024-02-26T02:20:09;1.50;99.90
1948;DHT22;974;52.400;9.818;2024-02-26T02:22:34;1.60;99.90
1948;DHT22;974;52.400;9.818;2024-02-26T02:25:00;1.70;99.90
1948;DHT22;974;52.400;9.818;2024-02-26T02:27:26;1.60;99.90
1948;DHT22;974;52.400;9.818;2024-02-26T02:29:53;1.60;99.90
1948;DHT22;974;52.400;9.818;2024-02-26T02:32:19;1.70;99.90
1948;DHT22;974;52.400;9.818;2024-02-26T02:34:45;1.80;99.90
1948;DHT22;974;52.400;9.818;2024-02-26T02:37:11;1.70;99.90
1948;DHT22;974;52.400;9.818;2024-02-26T02:39:36;1.80;99.90
1948;DHT22;974;52.400;9.818;2024-02-26T02:42:02;1.80;99.90
1948;DHT22;974;52.400;9.818;2024-02-26T02:44:27;1.80;99.90
1948;DHT22;974;52.400;9.818;2024-02-26T02:46:53;1.80;99.90
1948;DHT22;974;52.400;9.818;2024-02-26T02:49:18;1.80;99.90
1948;DHT22;974;52.400;9.818;2024-02-26T02:51:44;1.80;99.90
1948;DHT22;974;52.400;9.818;2024-02-26T02:54:09;1.80;99.90
1948;DHT22;974;52.400;9.818;2024-02-26T02:56:35;1.80;99.90
1948;DHT22;974;52.400;9.818;2024-02-26T02:59:01;1.70;99.90
1948;DHT22;974;52.400;9.818;2024-02-26T03:01:27;1.70;99.90
1948;DHT22;974;52.400;9.818;2024-02-26T03:03:52;1.70;99.90
1948;DHT22;974;52.400;9.818;2024-02-26T03:06:17;1.70;99.90
1948;DHT22;974;52.400;9.818;2024-02-26T03:08:43;1.70;99.90
1948;DHT22;974;52.400;9.818;2024-02-26T03:11:13;1.70;99.90
1948;DHT22;974;52.400;9.818;2024-02-26T03:13:39;1.60;99.90
1948;DHT22;974;52.400;9.818;2024-02-26T03:16:05;1.60;99.90
1948;DHT22;974;52.400;9.818;2024-02-26T03:18:31;1.70;99.90
1948;DHT22;974;52.400;9.818;2024-02-26T03:20:56;1.70;99.90
1948;DHT22;974;52.400;9.818;2024-02-26T03:23:22;1.50;99.90
1948;DHT22;974;52.400;9.818;2024-02-26T03:25:47;1.60;99.90
1948;DHT22;974;52.400;9.818;2024-02-26T03:28:13;1.60;99.90
1948;DHT22;974;52.400;9.818;2024-02-26T03:30:39;1.70;99.90
1948;DHT22;974;52.400;9.818;2024-02-26T03:33:04;1.70;99.90
1948;DHT22;974;52.400;9.818;2024-02-26T03:35:30;1.70;99.90
1948;DHT22;974;52.400;9.818;2024-02-26T03:37:55;1.50;99.90
1948;DHT22;974;52.400;9.818;2024-02-26T03:40:21;1.60;99.90
1948;DHT22;974;52.400;9.818;2024-02-26T03:42:46;1.50;99.90
1948;DHT22;974;52.400;9.818;2024-02-26T03:45:12;1.60;99.90
1948;DHT22;974;52.400;9.818;2024-02-26T03:47:38;1.60;99.90
1948;DHT22;974;52.400;9.818;2024-02-26T03:50:06;1.60;99.90
1948;DHT22;974;52.400;9.818;2024-02-26T03:52:32;1.50;99.90
1948;DHT22;974;52.400;9.818;2024-02-26T03:54:58;1.40;99.90
1948;DHT22;974;52.400;9.818;2024-02-26T03:57:23;1.50;99.90
1948;DHT22;974;52.400;9.818;2024-02-26T03:59:49;1.40;99.90
1948;DHT22;974;52.400;9.818;2024-02-26T04:02:14;1.50;99.90
1948;DHT22;974;52.400;9.818;2024-02-26T04:04:41;1.50;99.90
1948;DHT22;974;52.400;9.818;2024-02-26T04:07:06;1.40;99.90
1948;DHT22;974;52.400;9.818;2024-02-26T04:09:32;1.40;99.90
1948;DHT22;974;52.400;9.818;2024-02-26T04:11:58;1.50;99.90
1948;DHT22;974;52.400;9.818;2024-02-26T04:14:23;1.40;99.90
1948;DHT22;974;52.400;9.818;2024-02-26T04:16:49;1.50;99.90
1948;DHT22;974;52.400;9.818;2024-02-26T04:19:17;1.60;99.90
1948;DHT22;974;52.400;9.818;2024-02-26T04:21:43;1.70;99.90
1948;DHT22;974;52.400;9.818;2024-02-26T04:24:08;1.70;99.90
1948;DHT22;974;52.400;9.818;2024-02-26T04:26:34;1.80;99.90
1948;DHT22;974;52.400;9.818;2024-02-26T04:29:00;1.80;99.90
1948;DHT22;974;52.400;9.818;2024-02-26T04:31:25;1.90;99.90
1948;DHT22;974;52.400;9.818;2024-02-26T04:33:54;2.00;99.90
1948;DHT22;974;52.400;9.818;2024-02-26T04:36:19;1.90;99.90
1948;DHT22;974;52.400;9.818;2024-02-26T04:38:45;1.90;99.90
1948;DHT22;974;52.400;9.818;2024-02-26T04:41:11;2.00;99.90
1948;DHT22;974;52.400;9.818;2024-02-26T04:43:37;2.10;99.90
1948;DHT22;974;52.400;9.818;2024-02-26T04:46:07;2.10;99.90
1948;DHT22;974;52.400;9.818;2024-02-26T04:48:34;2.10;99.90
1948;DHT22;974;52.400;9.818;2024-02-26T04:50:59;2.10;99.90
1948;DHT22;974;52.400;9.818;2024-02-26T04:53:25;2.10;99.90
1948;DHT22;974;52.400;9.818;2024-02-26T04:55:50;2.20;99.90
1948;DHT22;974;52.400;9.818;2024-02-26T04:58:16;2.30;99.90
1948;DHT22;974;52.400;9.818;2024-02-26T05:00:41;2.20;99.90
1948;DHT22;974;52.400;9.818;2024-02-26T05:03:06;2.20;99.90
1948;DHT22;974;52.400;9.818;2024-02-26T05:05:33;2.30;99.90
1948;DHT22;974;52.400;9.818;2024-02-26T05:07:58;2.00;99.90
1948;DHT22;974;52.400;9.818;2024-02-26T05:10:24;2.40;99.90
1948;DHT22;974;52.400;9.818;2024-02-26T05:12:49;2.40;99.90
1948;DHT22;974;52.400;9.818;2024-02-26T05:15:15;2.40;99.90
1948;DHT22;974;52.400;9.818;2024-02-26T05:17:44;2.30;99.90
1948;DHT22;974;52.400;9.818;2024-02-26T05:20:10;2.30;99.90
1948;DHT22;974;52.400;9.818;2024-02-26T05:22:35;2.50;99.90
1948;DHT22;974;52.400;9.818;2024-02-26T05:25:02;2.50;99.90
1948;DHT22;974;52.400;9.818;2024-02-26T05:27:28;2.40;99.90
1948;DHT22;974;52.400;9.818;2024-02-26T05:29:54;2.40;99.90
1948;DHT22;974;52.400;9.818;2024-02-26T05:32:19;2.50;99.90
1948;DHT22;974;52.400;9.818;2024-02-26T05:34:45;2.50;99.90
1948;DHT22;974;52.400;9.818;2024-02-26T05:37:10;2.50;99.90
1948;DHT22;974;52.400;9.818;2024-02-26T05:39:36;2.40;99.90
1948;DHT22;974;52.400;9.818;2024-02-26T05:42:02;2.40;99.90
1948;DHT22;974;52.400;9.818;2024-02-26T05:44:28;2.40;99.90
1948;DHT22;974;52.400;9.818;2024-02-26T05:46:54;2.40;99.90
1948;DHT22;974;52.400;9.818;2024-02-26T05:49:19;2.40;99.90
1948;DHT22;974;52.400;9.818;2024-02-26T05:51:44;2.50;99.90
1948;DHT22;974;52.400;9.818;2024-02-26T05:54:10;2.50;99.90
1948;DHT22;974;52.400;9.818;2024-02-26T05:56:36;2.50;99.90
1948;DHT22;974;52.400;9.818;2024-02-26T05:59:02;2.60;99.90
1948;DHT22;974;52.400;9.818;2024-02-26T06:01:28;2.70;99.90
1948;DHT22;974;52.400;9.818;2024-02-26T06:03:53;2.60;99.90
1948;DHT22;974;52.400;9.818;2024-02-26T06:06:19;2.70;99.90
1948;DHT22;974;52.400;9.818;2024-02-26T06:08:44;2.80;99.90
1948;DHT22;974;52.400;9.818;2024-02-26T06:11:10;2.80;99.90
1948;DHT22;974;52.400;9.818;2024-02-26T06:13:35;2.80;99.90
1948;DHT22;974;52.400;9.818;2024-02-26T06:16:01;2.80;99.90
1948;DHT22;974;52.400;9.818;2024-02-26T06:18:27;2.90;99.90
1948;DHT22;974;52.400;9.818;2024-02-26T06:20:53;2.90;99.90
1948;DHT22;974;52.400;9.818;2024-02-26T06:23:18;2.90;99.90
1948;DHT22;974;52.400;9.818;2024-02-26T06:25:44;2.80;99.90
1948;DHT22;974;52.400;9.818;2024-02-26T06:28:09;2.80;99.90
1948;DHT22;974;52.400;9.818;2024-02-26T06:30:35;2.90;99.90
1948;DHT22;974;52.400;9.818;2024-02-26T06:33:01;2.90;99.90
1948;DHT22;974;52.400;9.818;2024-02-26T06:35:27;3.00;99.90
1948;DHT22;974;52.400;9.818;2024-02-26T06:37:52;2.90;99.90
1948;DHT22;974;52.400;9.818;2024-02-26T06:40:19;3.00;99.90
1948;DHT22;974;52.400;9.818;2024-02-26T06:42:45;3.00;99.90
1948;DHT22;974;52.400;9.818;2024-02-26T06:45:10;3.00;99.90
1948;DHT22;974;52.400;9.818;2024-02-26T06:47:36;3.10;99.90
1948;DHT22;974;52.400;9.818;2024-02-26T06:50:01;3.10;99.90
1948;DHT22;974;52.400;9.818;2024-02-26T06:52:27;3.00;99.90
1948;DHT22;974;52.400;9.818;2024-02-26T06:54:53;3.10;99.90
1948;DHT22;974;52.400;9.818;2024-02-26T06:57:20;3.10;99.90
1948;DHT22;974;52.400;9.818;2024-02-26T06:59:45;3.10;99.90
1948;DHT22;974;52.400;9.818;2024-02-26T07:02:15;3.10;99.90
1948;DHT22;974;52.400;9.818;2024-02-26T07:04:41;3.20;99.90
1948;DHT22;974;52.400;9.818;2024-02-26T07:07:07;3.20;99.90
1948;DHT22;974;52.400;9.818;2024-02-26T07:09:33;3.30;99.90
1948;DHT22;974;52.400;9.818;2024-02-26T07:11:59;3.30;99.90
1948;DHT22;974;52.400;9.818;2024-02-26T07:14:24;3.40;99.90
1948;DHT22;974;52.400;9.818;2024-02-26T07:16:50;3.40;99.90
1948;DHT22;974;52.400;9.818;2024-02-26T07:19:16;3.40;99.90
1948;DHT22;974;52.400;9.818;2024-02-26T07:21:41;3.40;99.90
1948;DHT22;974;52.400;9.818;2024-02-26T07:24:06;3.30;99.90
1948;DHT22;974;52.400;9.818;2024-02-26T07:26:32;3.50;99.90
1948;DHT22;974;52.400;9.818;2024-02-26T07:28:58;3.60;99.90
1948;DHT22;974;52.400;9.818;2024-02-26T07:31:23;3.50;99.90
1948;DHT22;974;52.400;9.818;2024-02-26T07:33:49;3.60;99.90
1948;DHT22;974;52.400;9.818;2024-02-26T07:36:14;3.60;99.90
1948;DHT22;974;52.400;9.818;2024-02-26T07:38:40;3.60;99.90
1948;DHT22;974;52.400;9.818;2024-02-26T07:41:05;3.70;99.90
1948;DHT22;974;52.400;9.818;2024-02-26T07:43:31;3.70;99.90
1948;DHT22;974;52.400;9.818;2024-02-26T07:45:57;3.70;99.90
1948;DHT22;974;52.400;9.818;2024-02-26T07:48:22;3.70;99.90
1948;DHT22;974;52.400;9.818;2024-02-26T07:50:48;3.70;99.90
1948;DHT22;974;52.400;9.818;2024-02-26T07:53:14;3.80;99.90
1948;DHT22;974;52.400;9.818;2024-02-26T07:55:39;3.80;99.90
1948;DHT22;974;52.400;9.818;2024-02-26T07:58:05;3.80;99.90
1948;DHT22;974;52.400;9.818;2024-02-26T08:00:30;3.90;99.90
1948;DHT22;974;52.400;9.818;2024-02-26T08:02:55;3.80;99.90
1948;DHT22;974;52.400;9.818;2024-02-26T08:05:21;3.90;99.90
1948;DHT22;974;52.400;9.818;2024-02-26T08:07:46;4.00;99.90
1948;DHT22;974;52.400;9.818;2024-02-26T08:10:12;4.00;99.90
1948;DHT22;974;52.400;9.818;2024-02-26T08:12:38;4.10;99.90
1948;DHT22;974;52.400;9.818;2024-02-26T08:15:03;4.10;99.90
1948;DHT22;974;52.400;9.818;2024-02-26T08:17:29;4.20;99.90
1948;DHT22;974;52.400;9.818;2024-02-26T08:19:55;4.20;99.90
1948;DHT22;974;52.400;9.818;2024-02-26T08:22:21;4.30;99.90
1948;DHT22;974;52.400;9.818;2024-02-26T08:24:47;4.30;99.90
1948;DHT22;974;52.400;9.818;2024-02-26T08:27:12;4.40;99.90
1948;DHT22;974;52.400;9.818;2024-02-26T08:29:38;4.40;99.90
1948;DHT22;974;52.400;9.818;2024-02-26T08:32:03;4.40;99.90
1948;DHT22;974;52.400;9.818;2024-02-26T08:34:29;4.50;99.90
1948;DHT22;974;52.400;9.818;2024-02-26T08:36:54;4.50;99.90
1948;DHT22;974;52.400;9.818;2024-02-26T08:39:20;4.60;99.90
1948;DHT22;974;52.400;9.818;2024-02-26T08:41:46;4.50;99.90
1948;DHT22;974;52.400;9.818;2024-02-26T08:44:11;4.60;99.90
1948;DHT22;974;52.400;9.818;2024-02-26T08:46:37;4.70;99.90
1948;DHT22;974;52.400;9.818;2024-02-26T08:49:03;4.70;99.90
1948;DHT22;974;52.400;9.818;2024-02-26T08:51:28;4.70;99.90
1948;DHT22;974;52.400;9.818;2024-02-26T08:53:54;4.90;99.90
1948;DHT22;974;52.400;9.818;2024-02-26T08:56:20;4.90;99.90
1948;DHT22;974;52.400;9.818;2024-02-26T08:58:47;5.00;99.90
1948;DHT22;974;52.400;9.818;2024-02-26T09:01:14;5.00;99.90
1948;DHT22;974;52.400;9.818;2024-02-26T09:03:40;5.00;99.90
1948;DHT22;974;52.400;9.818;2024-02-26T09:06:05;5.20;99.90
1948;DHT22;974;52.400;9.818;2024-02-26T09:08:32;5.20;99.90
1948;DHT22;974;52.400;9.818;2024-02-26T09:10:58;5.20;99.90
1948;DHT22;974;52.400;9.818;2024-02-26T09:13:23;5.30;99.90
1948;DHT22;974;52.400;9.818;2024-02-26T09:15:49;5.30;99.90
1948;DHT22;974;52.400;9.818;2024-02-26T09:18:14;5.30;99.90
1948;DHT22;974;52.400;9.818;2024-02-26T09:20:40;5.30;99.90
1948;DHT22;974;52.400;9.818;2024-02-26T09:23:06;5.40;99.90
1948;DHT22;974;52.400;9.818;2024-02-26T09:25:31;5.40;99.90
1948;DHT22;974;52.400;9.818;2024-02-26T09:27:59;5.40;99.90
1948;DHT22;974;52.400;9.818;2024-02-26T09:30:24;5.40;99.90
1948;DHT22;974;52.400;9.818;2024-02-26T09:32:50;5.50;99.90
1948;DHT22;974;52.400;9.818;2024-02-26T09:35:15;5.50;99.90
1948;DHT22;974;52.400;9.818;2024-02-26T09:37:41;5.50;99.90
1948;DHT22;974;52.400;9.818;2024-02-26T09:40:09;5.50;99.90
1948;DHT22;974;52.400;9.818;2024-02-26T09:42:37;5.60;99.90
1948;DHT22;974;52.400;9.818;2024-02-26T09:45:11;5.70;99.90
1948;DHT22;974;52.400;9.818;2024-02-26T09:47:38;5.60;99.90
1948;DHT22;974;52.400;9.818;2024-02-26T09:50:05;5.60;99.90
1948;DHT22;974;52.400;9.818;2024-02-26T09:52:33;5.60;99.90
1948;DHT22;974;52.400;9.818;2024-02-26T09:55:00;5.60;99.90
1948;DHT22;974;52.400;9.818;2024-02-26T09:57:26;5.70;99.90
1948;DHT22;974;52.400;9.818;2024-02-26T09:59:53;5.80;99.90
1948;DHT22;974;52.400;9.818;2024-02-26T10:02:20;5.90;99.90
1948;DHT22;974;52.400;9.818;2024-02-26T10:04:47;5.90;99.90
1948;DHT22;974;52.400;9.818;2024-02-26T10:07:13;5.90;99.90
1948;DHT22;974;52.400;9.818;2024-02-26T10:09:39;6.00;99.90
1948;DHT22;974;52.400;9.818;2024-02-26T10:12:07;6.10;99.90
1948;DHT22;974;52.400;9.818;2024-02-26T10:14:33;6.10;99.90
1948;DHT22;974;52.400;9.818;2024-02-26T10:16:59;6.10;99.90
1948;DHT22;974;52.400;9.818;2024-02-26T10:19:29;6.20;99.90
1948;DHT22;974;52.400;9.818;2024-02-26T10:21:59;6.20;99.90
1948;DHT22;974;52.400;9.818;2024-02-26T10:24:26;6.30;99.90
1948;DHT22;974;52.400;9.818;2024-02-26T10:26:55;6.20;99.90
1948;DHT22;974;52.400;9.818;2024-02-26T10:29:24;6.20;99.90
1948;DHT22;974;52.400;9.818;2024-02-26T10:31:50;6.20;99.90
1948;DHT22;974;52.400;9.818;2024-02-26T10:34:16;6.30;99.90
1948;DHT22;974;52.400;9.818;2024-02-26T10:36:42;6.40;99.90
1948;DHT22;974;52.400;9.818;2024-02-26T10:39:09;6.40;99.90
1948;DHT22;974;52.400;9.818;2024-02-26T10:41:34;6.40;99.90
1948;DHT22;974;52.400;9.818;2024-02-26T10:44:00;6.30;99.90
1948;DHT22;974;52.400;9.818;2024-02-26T10:46:26;6.40;99.90
1948;DHT22;974;52.400;9.818;2024-02-26T10:48:53;6.40;99.90
1948;DHT22;974;52.400;9.818;2024-02-26T10:51:29;6.50;99.90
1948;DHT22;974;52.400;9.818;2024-02-26T10:53:59;6.50;99.90
1948;DHT22;974;52.400;9.818;2024-02-26T10:56:28;6.50;99.90
1948;DHT22;974;52.400;9.818;2024-02-26T10:58:55;6.60;99.90
1948;DHT22;974;52.400;9.818;2024-02-26T11:01:21;6.60;99.90
1948;DHT22;974;52.400;9.818;2024-02-26T11:03:52;6.80;99.90
1948;DHT22;974;52.400;9.818;2024-02-26T11:06:22;6.80;99.90
1948;DHT22;974;52.400;9.818;2024-02-26T11:08:48;6.80;99.90
1948;DHT22;974;52.400;9.818;2024-02-26T11:11:15;6.80;99.90
1948;DHT22;974;52.400;9.818;2024-02-26T11:13:42;6.90;99.90
1948;DHT22;974;52.400;9.818;2024-02-26T11:16:11;6.90;99.90
1948;DHT22;974;52.400;9.818;2024-02-26T11:18:38;6.90;99.90
1948;DHT22;974;52.400;9.818;2024-02-26T11:21:05;6.90;99.90
1948;DHT22;974;52.400;9.818;2024-02-26T11:23:33;6.90;99.90
1948;DHT22;974;52.400;9.818;2024-02-26T11:26:02;7.00;99.90
1948;DHT22;974;52.400;9.818;2024-02-26T11:28:31;7.00;99.90
1948;DHT22;974;52.400;9.818;2024-02-26T11:30:59;7.00;99.90
1948;DHT22;974;52.400;9.818;2024-02-26T11:33:26;7.00;99.90
1948;DHT22;974;52.400;9.818;2024-02-26T11:35:53;7.00;99.90
1948;DHT22;974;52.400;9.818;2024-02-26T11:38:24;7.20;99.90
1948;DHT22;974;52.400;9.818;2024-02-26T11:40:51;7.20;99.90
1948;DHT22;974;52.400;9.818;2024-02-26T11:43:17;7.40;99.90
1948;DHT22;974;52.400;9.818;2024-02-26T11:48:14;7.40;99.90
1948;DHT22;974;52.400;9.818;2024-02-26T11:50:45;7.50;99.90
1948;DHT22;974;52.400;9.818;2024-02-26T11:53:24;7.40;99.90
1948;DHT22;974;52.400;9.818;2024-02-26T11:56:21;7.50;99.90
1948;DHT22;974;52.400;9.818;2024-02-26T11:58:47;7.50;99.90
1948;DHT22;974;52.400;9.818;2024-02-26T12:02:07;7.60;99.90
1948;DHT22;974;52.400;9.818;2024-02-26T12:04:26;7.60;99.90
1948;DHT22;974;52.400;9.818;2024-02-26T12:07:00;7.70;99.90
1948;DHT22;974;52.400;9.818;2024-02-26T12:09:41;7.70;99.90
1948;DHT22;974;52.400;9.818;2024-02-26T12:12:09;7.70;99.90
1948;DHT22;974;52.400;9.818;2024-02-26T12:14:51;7.80;99.90
1948;DHT22;974;52.400;9.818;2024-02-26T12:17:22;7.90;99.90
1948;DHT22;974;52.400;9.818;2024-02-26T12:19:47;7.90;99.90
1948;DHT22;974;52.400;9.818;2024-02-26T12:22:13;8.00;99.90
1948;DHT22;974;52.400;9.818;2024-02-26T12:24:40;8.10;99.90
1948;DHT22;974;52.400;9.818;2024-02-26T12:27:05;8.10;99.90
1948;DHT22;974;52.400;9.818;2024-02-26T12:29:31;8.20;99.90
1948;DHT22;974;52.400;9.818;2024-02-26T12:31:57;8.30;99.90
1948;DHT22;974;52.400;9.818;2024-02-26T12:34:23;8.40;99.90
1948;DHT22;974;52.400;9.818;2024-02-26T12:36:48;8.50;99.90
1948;DHT22;974;52.400;9.818;2024-02-26T12:39:14;8.60;99.90
1948;DHT22;974;52.400;9.818;2024-02-26T12:41:40;8.70;99.90
1948;DHT22;974;52.400;9.818;2024-02-26T12:44:07;8.70;99.90
1948;DHT22;974;52.400;9.818;2024-02-26T12:46:33;8.80;99.90
1948;DHT22;974;52.400;9.818;2024-02-26T12:48:59;8.80;99.90
1948;DHT22;974;52.400;9.818;2024-02-26T12:51:26;9.00;99.90
1948;DHT22;974;52.400;9.818;2024-02-26T12:53:52;9.10;99.90
1948;DHT22;974;52.400;9.818;2024-02-26T12:56:18;9.20;99.90
1948;DHT22;974;52.400;9.818;2024-02-26T12:58:44;9.40;99.90
1948;DHT22;974;52.400;9.818;2024-02-26T13:01:14;9.30;99.90
1948;DHT22;974;52.400;9.818;2024-02-26T13:03:42;9.40;99.90
1948;DHT22;974;52.400;9.818;2024-02-26T13:06:09;9.30;99.90
1948;DHT22;974;52.400;9.818;2024-02-26T13:08:34;9.30;99.90
1948;DHT22;974;52.400;9.818;2024-02-26T13:11:00;9.30;99.90
1948;DHT22;974;52.400;9.818;2024-02-26T13:13:26;9.30;99.90
1948;DHT22;974;52.400;9.818;2024-02-26T13:16:09;9.10;99.90
1948;DHT22;974;52.400;9.818;2024-02-26T13:18:35;9.10;99.90
1948;DHT22;974;52.400;9.818;2024-02-26T13:21:13;8.90;99.90
1948;DHT22;974;52.400;9.818;2024-02-26T13:23:39;8.90;99.90
1948;DHT22;974;52.400;9.818;2024-02-26T13:26:06;8.90;99.90
1948;DHT22;974;52.400;9.818;2024-02-26T13:28:31;9.00;99.90
1948;DHT22;974;52.400;9.818;2024-02-26T13:30:58;8.90;99.90
1948;DHT22;974;52.400;9.818;2024-02-26T13:33:26;9.00;99.90
1948;DHT22;974;52.400;9.818;2024-02-26T13:35:53;8.90;99.90
1948;DHT22;974;52.400;9.818;2024-02-26T13:38:18;8.90;99.90
1948;DHT22;974;52.400;9.818;2024-02-26T13:40:44;8.90;99.90
1948;DHT22;974;52.400;9.818;2024-02-26T13:43:09;8.90;99.90
1948;DHT22;974;52.400;9.818;2024-02-26T13:45:36;8.80;99.90
1948;DHT22;974;52.400;9.818;2024-02-26T13:48:04;8.80;99.90
1948;DHT22;974;52.400;9.818;2024-02-26T13:50:30;8.80;99.90
1948;DHT22;974;52.400;9.818;2024-02-26T13:52:55;8.80;99.90
1948;DHT22;974;52.400;9.818;2024-02-26T13:55:22;8.70;99.90
1948;DHT22;974;52.400;9.818;2024-02-26T13:57:49;8.50;99.90
1948;DHT22;974;52.400;9.818;2024-02-26T14:00:17;8.50;99.90
1948;DHT22;974;52.400;9.818;2024-02-26T14:02:43;8.50;99.90
1948;DHT22;974;52.400;9.818;2024-02-26T14:05:08;8.60;99.90
1948;DHT22;974;52.400;9.818;2024-02-26T14:07:34;8.50;99.90
1948;DHT22;974;52.400;9.818;2024-02-26T14:10:00;8.50;99.90
1948;DHT22;974;52.400;9.818;2024-02-26T14:12:25;8.40;99.90
1948;DHT22;974;52.400;9.818;2024-02-26T14:14:51;8.40;99.90
1948;DHT22;974;52.400;9.818;2024-02-26T14:17:18;8.30;99.90
1948;DHT22;974;52.400;9.818;2024-02-26T14:19:44;8.30;99.90
1948;DHT22;974;52.400;9.818;2024-02-26T14:22:14;8.30;99.90
1948;DHT22;974;52.400;9.818;2024-02-26T14:24:41;8.30;99.90
1948;DHT22;974;52.400;9.818;2024-02-26T14:27:10;8.20;99.90
1948;DHT22;974;52.400;9.818;2024-02-26T14:29:36;8.30;99.90
1948;DHT22;974;52.400;9.818;2024-02-26T14:32:03;8.30;99.90
1948;DHT22;974;52.400;9.818;2024-02-26T14:34:29;8.30;99.90
1948;DHT22;974;52.400;9.818;2024-02-26T14:36:54;8.30;99.90
1948;DHT22;974;52.400;9.818;2024-02-26T14:39:21;8.30;99.90
1948;DHT22;974;52.400;9.818;2024-02-26T14:41:46;8.30;99.90
1948;DHT22;974;52.400;9.818;2024-02-26T14:44:11;8.30;99.90
1948;DHT22;974;52.400;9.818;2024-02-26T14:46:38;8.30;99.90
1948;DHT22;974;52.400;9.818;2024-02-26T14:49:03;8.30;99.90
1948;DHT22;974;52.400;9.818;2024-02-26T14:51:29;8.30;99.90
1948;DHT22;974;52.400;9.818;2024-02-26T14:53:54;8.20;99.90
1948;DHT22;974;52.400;9.818;2024-02-26T14:56:20;8.30;99.90
1948;DHT22;974;52.400;9.818;2024-02-26T14:58:45;8.20;99.90
1948;DHT22;974;52.400;9.818;2024-02-26T15:01:11;8.20;99.90
1948;DHT22;974;52.400;9.818;2024-02-26T15:03:37;8.20;99.90
1948;DHT22;974;52.400;9.818;2024-02-26T15:06:02;8.20;99.90
1948;DHT22;974;52.400;9.818;2024-02-26T15:08:28;8.20;99.90
1948;DHT22;974;52.400;9.818;2024-02-26T15:10:53;8.20;99.90
1948;DHT22;974;52.400;9.818;2024-02-26T15:13:19;8.20;99.90
1948;DHT22;974;52.400;9.818;2024-02-26T15:15:45;8.20;99.90
1948;DHT22;974;52.400;9.818;2024-02-26T15:18:11;8.20;99.90
1948;DHT22;974;52.400;9.818;2024-02-26T15:20:41;8.20;99.90
1948;DHT22;974;52.400;9.818;2024-02-26T15:23:08;8.20;99.90
1948;DHT22;974;52.400;9.818;2024-02-26T15:25:34;8.20;99.90
1948;DHT22;974;52.400;9.818;2024-02-26T15:28:00;8.20;99.90
1948;DHT22;974;52.400;9.818;2024-02-26T15:30:26;8.20;99.90
1948;DHT22;974;52.400;9.818;2024-02-26T15:32:57;8.20;99.90
1948;DHT22;974;52.400;9.818;2024-02-26T15:35:22;8.10;99.90
1948;DHT22;974;52.400;9.818;2024-02-26T15:37:48;8.10;99.90
1948;DHT22;974;52.400;9.818;2024-02-26T15:40:14;8.20;99.90
1948;DHT22;974;52.400;9.818;2024-02-26T15:42:39;8.20;99.90
1948;DHT22;974;52.400;9.818;2024-02-26T15:45:05;8.10;99.90
1948;DHT22;974;52.400;9.818;2024-02-26T15:47:31;8.10;99.90
1948;DHT22;974;52.400;9.818;2024-02-26T15:49:57;8.10;99.90
1948;DHT22;974;52.400;9.818;2024-02-26T15:52:22;8.10;99.90
1948;DHT22;974;52.400;9.818;2024-02-26T15:54:48;8.10;99.90
1948;DHT22;974;52.400;9.818;2024-02-26T15:57:13;8.10;99.90
1948;DHT22;974;52.400;9.818;2024-02-26T15:59:39;8.00;99.90
1948;DHT22;974;52.400;9.818;2024-02-26T16:02:05;7.90;99.90
1948;DHT22;974;52.400;9.818;2024-02-26T16:04:31;8.00;99.90
1948;DHT22;974;52.400;9.818;2024-02-26T16:06:59;7.90;99.90
1948;DHT22;974;52.400;9.818;2024-02-26T16:09:26;7.90;99.90
1948;DHT22;974;52.400;9.818;2024-02-26T16:11:54;7.90;99.90
1948;DHT22;974;52.400;9.818;2024-02-26T16:14:50;7.90;99.90
1948;DHT22;974;52.400;9.818;2024-02-26T16:17:30;7.90;99.90
1948;DHT22;974;52.400;9.818;2024-02-26T16:19:57;7.80;99.90
1948;DHT22;974;52.400;9.818;2024-02-26T16:22:23;7.80;99.90
1948;DHT22;974;52.400;9.818;2024-02-26T16:24:49;7.80;99.90
1948;DHT22;974;52.400;9.818;2024-02-26T16:27:15;7.80;99.90
1948;DHT22;974;52.400;9.818;2024-02-26T16:29:40;7.80;99.90
1948;DHT22;974;52.400;9.818;2024-02-26T16:32:06;7.80;99.90